sensor_id;sensor_type;location;lat;lon;timestamp;pressure;altitude;pressure_sealevel;temperature
45850;BMP180;10739;52.198;20.908;2022-09-09T00:02:22;100114.00;;;15.00
45850;BMP180;10739;52.198;20.908;2022-09-09T00:05:13;100112.00;;;14.70
45850;BMP180;10739;52.198;20.908;2022-09-09T00:07:51;100104.00;;;14.60
45850;BMP180;10739;52.198;20.908;2022-09-09T00:10:32;100113.00;;;14.80
45850;BMP180;10739;52.198;20.908;2022-09-09T00:13:37;100104.00;;;14.80
45850;BMP180;10739;52.198;20.908;2022-09-09T00:16:24;100108.00;;;15.20
45850;BMP180;10739;52.198;20.908;2022-09-09T00:24:55;100103.00;;;14.50
45850;BMP180;10739;52.198;20.908;2022-09-09T00:27:34;100103.00;;;14.30
45850;BMP180;10739;52.198;20.908;2022-09-09T00:30:19;100107.00;;;14.40
45850;BMP180;10739;52.198;20.908;2022-09-09T00:32:53;100112.00;;;14.20
45850;BMP180;10739;52.198;20.908;2022-09-09T00:35:35;100108.00;;;14.10
45850;BMP180;10739;52.198;20.908;2022-09-09T00:38:34;100107.00;;;14.50
45850;BMP180;10739;52.198;20.908;2022-09-09T00:46:54;100115.00;;;14.30
45850;BMP180;10739;52.198;20.908;2022-09-09T00:58:18;100108.00;;;14.10
45850;BMP180;10739;52.198;20.908;2022-09-09T01:00:52;100115.00;;;14.20
45850;BMP180;10739;52.198;20.908;2022-09-09T01:03:55;100108.00;;;14.50
45850;BMP180;10739;52.198;20.908;2022-09-09T01:06:37;100112.00;;;14.40
45850;BMP180;10739;52.198;20.908;2022-09-09T01:12:50;100108.00;;;14.50
45850;BMP180;10739;52.198;20.908;2022-09-09T01:15:30;100093.00;;;14.40
45850;BMP180;10739;52.198;20.908;2022-09-09T01:18:18;100102.00;;;14.10
45850;BMP180;10739;52.198;20.908;2022-09-09T01:21:19;100083.00;;;14.40
45850;BMP180;10739;52.198;20.908;2022-09-09T01:24:19;100090.00;;;14.20
45850;BMP180;10739;52.198;20.908;2022-09-09T01:26:51;100081.00;;;14.10
45850;BMP180;10739;52.198;20.908;2022-09-09T01:29:21;100081.00;;;14.40
45850;BMP180;10739;52.198;20.908;2022-09-09T01:32:35;100083.00;;;14.30
45850;BMP180;10739;52.198;20.908;2022-09-09T01:34:51;100081.00;;;14.20
45850;BMP180;10739;52.198;20.908;2022-09-09T01:37:17;100085.00;;;14.10
45850;BMP180;10739;52.198;20.908;2022-09-09T01:39:45;100091.00;;;14.50
45850;BMP180;10739;52.198;20.908;2022-09-09T01:42:16;100091.00;;;14.20
45850;BMP180;10739;52.198;20.908;2022-09-09T01:44:42;100095.00;;;14.40
45850;BMP180;10739;52.198;20.908;2022-09-09T01:47:09;100096.00;;;14.30
45850;BMP180;10739;52.198;20.908;2022-09-09T01:49:35;100102.00;;;14.30
45850;BMP180;10739;52.198;20.908;2022-09-09T01:52:02;100085.00;;;14.10
45850;BMP180;10739;52.198;20.908;2022-09-09T01:54:32;100085.00;;;14.50
45850;BMP180;10739;52.198;20.908;2022-09-09T01:57:17;100086.00;;;14.70
45850;BMP180;10739;52.198;20.908;2022-09-09T02:00:07;100088.00;;;14.80
45850;BMP180;10739;52.198;20.908;2022-09-09T02:03:01;100081.00;;;14.80
45850;BMP180;10739;52.198;20.908;2022-09-09T02:05:46;100085.00;;;14.70
45850;BMP180;10739;52.198;20.908;2022-09-09T02:08:24;100081.00;;;14.30
45850;BMP180;10739;52.198;20.908;2022-09-09T02:11:17;100083.00;;;14.50
45850;BMP180;10739;52.198;20.908;2022-09-09T02:13:47;100078.00;;;14.30
45850;BMP180;10739;52.198;20.908;2022-09-09T02:16:26;100067.00;;;14.40
45850;BMP180;10739;52.198;20.908;2022-09-09T02:21:43;100068.00;;;14.80
45850;BMP180;10739;52.198;20.908;2022-09-09T02:24:14;100069.00;;;14.60
45850;BMP180;10739;52.198;20.908;2022-09-09T02:26:44;100067.00;;;15.10
45850;BMP180;10739;52.198;20.908;2022-09-09T02:29:20;100077.00;;;14.70
45850;BMP180;10739;52.198;20.908;2022-09-09T02:31:50;100074.00;;;14.60
45850;BMP180;10739;52.198;20.908;2022-09-09T02:34:20;100069.00;;;14.80
45850;BMP180;10739;52.198;20.908;2022-09-09T02:36:53;100078.00;;;15.00
45850;BMP180;10739;52.198;20.908;2022-09-09T02:39:20;100084.00;;;14.70
45850;BMP180;10739;52.198;20.908;2022-09-09T02:41:46;100082.00;;;14.90
45850;BMP180;10739;52.198;20.908;2022-09-09T02:44:18;100092.00;;;14.50
45850;BMP180;10739;52.198;20.908;2022-09-09T02:50:31;100083.00;;;14.60
45850;BMP180;10739;52.198;20.908;2022-09-09T02:53:21;100087.00;;;14.40
45850;BMP180;10739;52.198;20.908;2022-09-09T02:56:04;100086.00;;;15.20
45850;BMP180;10739;52.198;20.908;2022-09-09T02:58:32;100083.00;;;14.60
45850;BMP180;10739;52.198;20.908;2022-09-09T03:00:59;100091.00;;;14.70
45850;BMP180;10739;52.198;20.908;2022-09-09T03:03:29;100080.00;;;14.80
45850;BMP180;10739;52.198;20.908;2022-09-09T03:05:56;100066.00;;;14.80
45850;BMP180;10739;52.198;20.908;2022-09-09T03:08:22;100074.00;;;14.80
45850;BMP180;10739;52.198;20.908;2022-09-09T03:10:49;100078.00;;;14.70
45850;BMP180;10739;52.198;20.908;2022-09-09T03:13:16;100067.00;;;14.40
45850;BMP180;10739;52.198;20.908;2022-09-09T03:15:45;100077.00;;;14.90
45850;BMP180;10739;52.198;20.908;2022-09-09T03:18:11;100069.00;;;14.40
45850;BMP180;10739;52.198;20.908;2022-09-09T03:20:37;100083.00;;;14.70
45850;BMP180;10739;52.198;20.908;2022-09-09T03:23:03;100074.00;;;15.20
45850;BMP180;10739;52.198;20.908;2022-09-09T03:25:30;100069.00;;;14.80
45850;BMP180;10739;52.198;20.908;2022-09-09T03:27:57;100079.00;;;14.90
45850;BMP180;10739;52.198;20.908;2022-09-09T03:30:26;100069.00;;;14.60
45850;BMP180;10739;52.198;20.908;2022-09-09T03:32:53;100068.00;;;15.00
45850;BMP180;10739;52.198;20.908;2022-09-09T03:35:21;100077.00;;;15.00
45850;BMP180;10739;52.198;20.908;2022-09-09T03:37:47;100069.00;;;15.10
45850;BMP180;10739;52.198;20.908;2022-09-09T03:40:14;100067.00;;;14.70
45850;BMP180;10739;52.198;20.908;2022-09-09T03:42:40;100067.00;;;15.10
45850;BMP180;10739;52.198;20.908;2022-09-09T03:45:09;100077.00;;;14.90
45850;BMP180;10739;52.198;20.908;2022-09-09T03:47:37;100085.00;;;15.00
45850;BMP180;10739;52.198;20.908;2022-09-09T03:50:07;100083.00;;;14.90
45850;BMP180;10739;52.198;20.908;2022-09-09T03:52:41;100092.00;;;14.70
45850;BMP180;10739;52.198;20.908;2022-09-09T03:55:08;100068.00;;;14.50
45850;BMP180;10739;52.198;20.908;2022-09-09T03:57:35;100087.00;;;15.00
45850;BMP180;10739;52.198;20.908;2022-09-09T04:00:07;100058.00;;;14.80
45850;BMP180;10739;52.198;20.908;2022-09-09T04:02:33;100075.00;;;15.10
45850;BMP180;10739;52.198;20.908;2022-09-09T04:04:59;100075.00;;;14.80
45850;BMP180;10739;52.198;20.908;2022-09-09T04:07:26;100085.00;;;15.00
45850;BMP180;10739;52.198;20.908;2022-09-09T04:09:54;100081.00;;;15.20
45850;BMP180;10739;52.198;20.908;2022-09-09T04:12:20;100078.00;;;14.90
45850;BMP180;10739;52.198;20.908;2022-09-09T04:14:46;100075.00;;;15.10
45850;BMP180;10739;52.198;20.908;2022-09-09T04:17:12;100064.00;;;15.20
45850;BMP180;10739;52.198;20.908;2022-09-09T04:19:38;100081.00;;;15.00
45850;BMP180;10739;52.198;20.908;2022-09-09T04:22:05;100065.00;;;15.50
45850;BMP180;10739;52.198;20.908;2022-09-09T04:24:31;100073.00;;;15.60
45850;BMP180;10739;52.198;20.908;2022-09-09T04:26:57;100082.00;;;15.40
45850;BMP180;10739;52.198;20.908;2022-09-09T04:29:23;100073.00;;;15.10
45850;BMP180;10739;52.198;20.908;2022-09-09T04:31:50;100085.00;;;15.50
45850;BMP180;10739;52.198;20.908;2022-09-09T04:34:16;100084.00;;;15.40
45850;BMP180;10739;52.198;20.908;2022-09-09T04:36:43;100083.00;;;15.30
45850;BMP180;10739;52.198;20.908;2022-09-09T04:39:09;100083.00;;;14.80
45850;BMP180;10739;52.198;20.908;2022-09-09T04:41:35;100084.00;;;14.70
45850;BMP180;10739;52.198;20.908;2022-09-09T04:44:02;100076.00;;;15.20
45850;BMP180;10739;52.198;20.908;2022-09-09T04:46:28;100081.00;;;15.20
45850;BMP180;10739;52.198;20.908;2022-09-09T04:48:54;100083.00;;;15.40
45850;BMP180;10739;52.198;20.908;2022-09-09T04:51:20;100087.00;;;15.50
45850;BMP180;10739;52.198;20.908;2022-09-09T04:53:47;100090.00;;;15.60
45850;BMP180;10739;52.198;20.908;2022-09-09T04:56:17;100088.00;;;15.60
45850;BMP180;10739;52.198;20.908;2022-09-09T04:58:43;100100.00;;;14.90
45850;BMP180;10739;52.198;20.908;2022-09-09T05:01:17;100097.00;;;15.50
45850;BMP180;10739;52.198;20.908;2022-09-09T05:03:44;100089.00;;;15.30
45850;BMP180;10739;52.198;20.908;2022-09-09T05:06:15;100100.00;;;15.00
45850;BMP180;10739;52.198;20.908;2022-09-09T05:08:43;100094.00;;;15.30
45850;BMP180;10739;52.198;20.908;2022-09-09T05:11:18;100088.00;;;15.20
45850;BMP180;10739;52.198;20.908;2022-09-09T05:13:45;100107.00;;;15.50
45850;BMP180;10739;52.198;20.908;2022-09-09T05:16:13;100101.00;;;15.30
45850;BMP180;10739;52.198;20.908;2022-09-09T05:18:41;100101.00;;;15.30
45850;BMP180;10739;52.198;20.908;2022-09-09T05:21:13;100093.00;;;15.60
45850;BMP180;10739;52.198;20.908;2022-09-09T05:23:40;100108.00;;;15.50
45850;BMP180;10739;52.198;20.908;2022-09-09T05:26:11;100099.00;;;15.40
45850;BMP180;10739;52.198;20.908;2022-09-09T05:28:38;100104.00;;;15.30
45850;BMP180;10739;52.198;20.908;2022-09-09T05:31:07;100107.00;;;15.50
45850;BMP180;10739;52.198;20.908;2022-09-09T05:33:35;100100.00;;;15.10
45850;BMP180;10739;52.198;20.908;2022-09-09T05:36:06;100107.00;;;15.00
45850;BMP180;10739;52.198;20.908;2022-09-09T05:38:34;100102.00;;;15.40
45850;BMP180;10739;52.198;20.908;2022-09-09T05:41:03;100097.00;;;15.70
45850;BMP180;10739;52.198;20.908;2022-09-09T05:43:30;100095.00;;;15.60
45850;BMP180;10739;52.198;20.908;2022-09-09T05:46:10;100091.00;;;15.20
45850;BMP180;10739;52.198;20.908;2022-09-09T05:48:47;100098.00;;;15.70
45850;BMP180;10739;52.198;20.908;2022-09-09T05:51:17;100090.00;;;15.60
45850;BMP180;10739;52.198;20.908;2022-09-09T05:53:45;100092.00;;;15.50
45850;BMP180;10739;52.198;20.908;2022-09-09T05:56:17;100092.00;;;15.10
45850;BMP180;10739;52.198;20.908;2022-09-09T05:58:45;100105.00;;;15.50
45850;BMP180;10739;52.198;20.908;2022-09-09T06:01:17;100104.00;;;15.50
45850;BMP180;10739;52.198;20.908;2022-09-09T06:03:49;100107.00;;;15.60
45850;BMP180;10739;52.198;20.908;2022-09-09T06:06:22;100106.00;;;15.70
45850;BMP180;10739;52.198;20.908;2022-09-09T06:08:57;100109.00;;;15.60
45850;BMP180;10739;52.198;20.908;2022-09-09T06:11:28;100121.00;;;15.70
45850;BMP180;10739;52.198;20.908;2022-09-09T06:13:57;100121.00;;;15.90
45850;BMP180;10739;52.198;20.908;2022-09-09T06:16:26;100124.00;;;15.40
45850;BMP180;10739;52.198;20.908;2022-09-09T06:18:55;100121.00;;;15.30
45850;BMP180;10739;52.198;20.908;2022-09-09T06:21:36;100133.00;;;15.70
45850;BMP180;10739;52.198;20.908;2022-09-09T06:24:04;100135.00;;;15.70
45850;BMP180;10739;52.198;20.908;2022-09-09T06:26:34;100126.00;;;15.90
45850;BMP180;10739;52.198;20.908;2022-09-09T06:29:02;100135.00;;;16.10
45850;BMP180;10739;52.198;20.908;2022-09-09T06:31:31;100118.00;;;16.00
45850;BMP180;10739;52.198;20.908;2022-09-09T06:34:00;100121.00;;;16.20
45850;BMP180;10739;52.198;20.908;2022-09-09T06:36:32;100122.00;;;15.90
45850;BMP180;10739;52.198;20.908;2022-09-09T06:39:00;100129.00;;;15.80
45850;BMP180;10739;52.198;20.908;2022-09-09T06:41:29;100119.00;;;16.00
45850;BMP180;10739;52.198;20.908;2022-09-09T06:43:56;100123.00;;;16.00
45850;BMP180;10739;52.198;20.908;2022-09-09T06:46:26;100127.00;;;15.90
45850;BMP180;10739;52.198;20.908;2022-09-09T06:48:57;100129.00;;;15.80
45850;BMP180;10739;52.198;20.908;2022-09-09T06:51:35;100135.00;;;15.60
45850;BMP180;10739;52.198;20.908;2022-09-09T06:54:03;100133.00;;;15.60
45850;BMP180;10739;52.198;20.908;2022-09-09T06:56:41;100126.00;;;15.80
45850;BMP180;10739;52.198;20.908;2022-09-09T06:59:09;100142.00;;;15.90
45850;BMP180;10739;52.198;20.908;2022-09-09T07:01:38;100138.00;;;16.30
45850;BMP180;10739;52.198;20.908;2022-09-09T07:04:10;100136.00;;;16.20
45850;BMP180;10739;52.198;20.908;2022-09-09T07:06:40;100142.00;;;16.00
45850;BMP180;10739;52.198;20.908;2022-09-09T07:09:13;100132.00;;;15.90
45850;BMP180;10739;52.198;20.908;2022-09-09T07:11:46;100140.00;;;16.10
45850;BMP180;10739;52.198;20.908;2022-09-09T07:14:13;100143.00;;;16.20
45850;BMP180;10739;52.198;20.908;2022-09-09T07:16:41;100147.00;;;16.10
45850;BMP180;10739;52.198;20.908;2022-09-09T07:19:08;100159.00;;;16.00
45850;BMP180;10739;52.198;20.908;2022-09-09T07:21:34;100155.00;;;15.80
45850;BMP180;10739;52.198;20.908;2022-09-09T07:24:01;100145.00;;;15.80
45850;BMP180;10739;52.198;20.908;2022-09-09T07:26:30;100151.00;;;16.40
45850;BMP180;10739;52.198;20.908;2022-09-09T07:28:57;100156.00;;;16.30
45850;BMP180;10739;52.198;20.908;2022-09-09T07:31:28;100150.00;;;16.60
45850;BMP180;10739;52.198;20.908;2022-09-09T07:33:58;100162.00;;;16.70
45850;BMP180;10739;52.198;20.908;2022-09-09T07:36:29;100149.00;;;16.70
45850;BMP180;10739;52.198;20.908;2022-09-09T07:39:11;100145.00;;;16.10
45850;BMP180;10739;52.198;20.908;2022-09-09T07:41:46;100160.00;;;16.30
45850;BMP180;10739;52.198;20.908;2022-09-09T07:44:18;100163.00;;;16.30
45850;BMP180;10739;52.198;20.908;2022-09-09T07:46:45;100156.00;;;16.30
45850;BMP180;10739;52.198;20.908;2022-09-09T07:49:12;100157.00;;;16.40
45850;BMP180;10739;52.198;20.908;2022-09-09T07:51:44;100171.00;;;16.70
45850;BMP180;10739;52.198;20.908;2022-09-09T07:54:14;100168.00;;;16.20
45850;BMP180;10739;52.198;20.908;2022-09-09T07:56:41;100178.00;;;16.20
45850;BMP180;10739;52.198;20.908;2022-09-09T07:59:09;100180.00;;;16.20
45850;BMP180;10739;52.198;20.908;2022-09-09T08:01:39;100191.00;;;16.30
45850;BMP180;10739;52.198;20.908;2022-09-09T08:04:10;100196.00;;;16.50
45850;BMP180;10739;52.198;20.908;2022-09-09T08:06:45;100195.00;;;16.70
45850;BMP180;10739;52.198;20.908;2022-09-09T08:09:12;100203.00;;;16.40
45850;BMP180;10739;52.198;20.908;2022-09-09T08:11:40;100200.00;;;16.60
45850;BMP180;10739;52.198;20.908;2022-09-09T08:14:10;100205.00;;;16.40
45850;BMP180;10739;52.198;20.908;2022-09-09T08:16:41;100201.00;;;16.60
45850;BMP180;10739;52.198;20.908;2022-09-09T08:19:08;100203.00;;;16.80
45850;BMP180;10739;52.198;20.908;2022-09-09T08:21:37;100202.00;;;16.50
45850;BMP180;10739;52.198;20.908;2022-09-09T08:24:07;100198.00;;;16.30
45850;BMP180;10739;52.198;20.908;2022-09-09T08:26:42;100208.00;;;16.60
45850;BMP180;10739;52.198;20.908;2022-09-09T08:29:12;100201.00;;;16.30
45850;BMP180;10739;52.198;20.908;2022-09-09T08:31:51;100198.00;;;16.40
45850;BMP180;10739;52.198;20.908;2022-09-09T08:34:21;100206.00;;;16.60
45850;BMP180;10739;52.198;20.908;2022-09-09T08:36:49;100205.00;;;16.40
45850;BMP180;10739;52.198;20.908;2022-09-09T08:39:19;100207.00;;;16.20
45850;BMP180;10739;52.198;20.908;2022-09-09T08:42:23;100216.00;;;16.80
45850;BMP180;10739;52.198;20.908;2022-09-09T08:50:37;100214.00;;;17.10
45850;BMP180;10739;52.198;20.908;2022-09-09T08:53:22;100207.00;;;17.30
45850;BMP180;10739;52.198;20.908;2022-09-09T08:55:57;100218.00;;;17.00
45850;BMP180;10739;52.198;20.908;2022-09-09T08:58:30;100210.00;;;16.70
45850;BMP180;10739;52.198;20.908;2022-09-09T09:01:14;100217.00;;;16.80
45850;BMP180;10739;52.198;20.908;2022-09-09T09:10:30;100214.00;;;16.80
45850;BMP180;10739;52.198;20.908;2022-09-09T09:12:45;100221.00;;;17.60
45850;BMP180;10739;52.198;20.908;2022-09-09T09:15:28;100211.00;;;17.50
45850;BMP180;10739;52.198;20.908;2022-09-09T09:17:56;100232.00;;;17.90
45850;BMP180;10739;52.198;20.908;2022-09-09T09:20:39;100237.00;;;17.10
45850;BMP180;10739;52.198;20.908;2022-09-09T09:23:23;100238.00;;;16.70
45850;BMP180;10739;52.198;20.908;2022-09-09T09:25:56;100244.00;;;17.30
45850;BMP180;10739;52.198;20.908;2022-09-09T09:28:27;100236.00;;;17.80
45850;BMP180;10739;52.198;20.908;2022-09-09T09:31:10;100240.00;;;17.80
45850;BMP180;10739;52.198;20.908;2022-09-09T09:33:56;100230.00;;;17.70
45850;BMP180;10739;52.198;20.908;2022-09-09T09:36:56;100234.00;;;17.70
45850;BMP180;10739;52.198;20.908;2022-09-09T09:39:27;100237.00;;;18.10
45850;BMP180;10739;52.198;20.908;2022-09-09T09:41:54;100235.00;;;17.80
45850;BMP180;10739;52.198;20.908;2022-09-09T09:44:28;100232.00;;;17.40
45850;BMP180;10739;52.198;20.908;2022-09-09T09:47:13;100242.00;;;17.30
45850;BMP180;10739;52.198;20.908;2022-09-09T09:49:55;100235.00;;;17.40
45850;BMP180;10739;52.198;20.908;2022-09-09T09:52:26;100237.00;;;17.70
45850;BMP180;10739;52.198;20.908;2022-09-09T09:54:54;100238.00;;;17.40
45850;BMP180;10739;52.198;20.908;2022-09-09T09:57:26;100236.00;;;17.60
45850;BMP180;10739;52.198;20.908;2022-09-09T10:00:16;100229.00;;;18.10
45850;BMP180;10739;52.198;20.908;2022-09-09T10:02:45;100235.00;;;17.70
45850;BMP180;10739;52.198;20.908;2022-09-09T10:05:35;100235.00;;;18.00
45850;BMP180;10739;52.198;20.908;2022-09-09T10:08:14;100237.00;;;17.90
45850;BMP180;10739;52.198;20.908;2022-09-09T10:20:27;100244.00;;;18.40
45850;BMP180;10739;52.198;20.908;2022-09-09T10:35:29;100277.00;;;17.90
45850;BMP180;10739;52.198;20.908;2022-09-09T10:41:09;100285.00;;;17.70
45850;BMP180;10739;52.198;20.908;2022-09-09T10:55:15;100305.00;;;18.00
45850;BMP180;10739;52.198;20.908;2022-09-09T10:57:49;100293.00;;;17.90
45850;BMP180;10739;52.198;20.908;2022-09-09T11:00:36;100308.00;;;17.50
45850;BMP180;10739;52.198;20.908;2022-09-09T11:03:05;100301.00;;;18.20
45850;BMP180;10739;52.198;20.908;2022-09-09T11:05:49;100306.00;;;18.00
45850;BMP180;10739;52.198;20.908;2022-09-09T11:08:28;100299.00;;;18.00
45850;BMP180;10739;52.198;20.908;2022-09-09T11:14:11;100315.00;;;17.80
45850;BMP180;10739;52.198;20.908;2022-09-09T11:16:57;100318.00;;;18.30
45850;BMP180;10739;52.198;20.908;2022-09-09T11:19:43;100311.00;;;18.20
45850;BMP180;10739;52.198;20.908;2022-09-09T11:22:34;100304.00;;;18.20
45850;BMP180;10739;52.198;20.908;2022-09-09T11:25:10;100309.00;;;18.00
45850;BMP180;10739;52.198;20.908;2022-09-09T11:39:38;100310.00;;;18.40
45850;BMP180;10739;52.198;20.908;2022-09-09T11:42:20;100307.00;;;18.10
45850;BMP180;10739;52.198;20.908;2022-09-09T11:44:46;100321.00;;;18.70
45850;BMP180;10739;52.198;20.908;2022-09-09T11:47:25;100325.00;;;18.70
45850;BMP180;10739;52.198;20.908;2022-09-09T11:52:46;100322.00;;;18.40
45850;BMP180;10739;52.198;20.908;2022-09-09T11:55:33;100318.00;;;18.50
45850;BMP180;10739;52.198;20.908;2022-09-09T12:00:42;100324.00;;;18.00
45850;BMP180;10739;52.198;20.908;2022-09-09T12:06:32;100321.00;;;18.60
45850;BMP180;10739;52.198;20.908;2022-09-09T12:09:28;100317.00;;;18.60
45850;BMP180;10739;52.198;20.908;2022-09-09T12:14:55;100334.00;;;18.30
45850;BMP180;10739;52.198;20.908;2022-09-09T12:17:25;100326.00;;;18.10
45850;BMP180;10739;52.198;20.908;2022-09-09T12:31:50;100318.00;;;18.20
45850;BMP180;10739;52.198;20.908;2022-09-09T12:37:35;100330.00;;;18.20
45850;BMP180;10739;52.198;20.908;2022-09-09T12:40:15;100326.00;;;18.80
45850;BMP180;10739;52.198;20.908;2022-09-09T12:42:44;100317.00;;;18.90
45850;BMP180;10739;52.198;20.908;2022-09-09T12:45:23;100317.00;;;18.80
45850;BMP180;10739;52.198;20.908;2022-09-09T12:48:03;100317.00;;;18.60
45850;BMP180;10739;52.198;20.908;2022-09-09T12:50:51;100314.00;;;18.80
45850;BMP180;10739;52.198;20.908;2022-09-09T12:53:25;100308.00;;;19.10
45850;BMP180;10739;52.198;20.908;2022-09-09T12:56:07;100315.00;;;18.80
45850;BMP180;10739;52.198;20.908;2022-09-09T12:58:37;100309.00;;;19.10
45850;BMP180;10739;52.198;20.908;2022-09-09T13:01:05;100325.00;;;18.70
45850;BMP180;10739;52.198;20.908;2022-09-09T13:03:42;100315.00;;;18.70
45850;BMP180;10739;52.198;20.908;2022-09-09T13:08:52;100318.00;;;18.90
45850;BMP180;10739;52.198;20.908;2022-09-09T13:11:51;100305.00;;;18.60
45850;BMP180;10739;52.198;20.908;2022-09-09T13:14:34;100313.00;;;18.80
45850;BMP180;10739;52.198;20.908;2022-09-09T13:17:22;100304.00;;;18.40
45850;BMP180;10739;52.198;20.908;2022-09-09T13:19:50;100304.00;;;18.90
45850;BMP180;10739;52.198;20.908;2022-09-09T13:22:39;100293.00;;;18.70
45850;BMP180;10739;52.198;20.908;2022-09-09T13:25:19;100293.00;;;19.00
45850;BMP180;10739;52.198;20.908;2022-09-09T13:28:04;100299.00;;;19.30
45850;BMP180;10739;52.198;20.908;2022-09-09T13:30:35;100297.00;;;19.00
45850;BMP180;10739;52.198;20.908;2022-09-09T13:33:22;100299.00;;;18.90
45850;BMP180;10739;52.198;20.908;2022-09-09T13:36:06;100295.00;;;19.20
45850;BMP180;10739;52.198;20.908;2022-09-09T13:41:25;100304.00;;;19.30
45850;BMP180;10739;52.198;20.908;2022-09-09T13:43:53;100310.00;;;19.10
45850;BMP180;10739;52.198;20.908;2022-09-09T13:46:42;100295.00;;;18.60
45850;BMP180;10739;52.198;20.908;2022-09-09T13:51:42;100309.00;;;18.30
45850;BMP180;10739;52.198;20.908;2022-09-09T13:54:11;100308.00;;;18.60
45850;BMP180;10739;52.198;20.908;2022-09-09T13:56:40;100307.00;;;19.10
45850;BMP180;10739;52.198;20.908;2022-09-09T13:59:25;100318.00;;;18.30
45850;BMP180;10739;52.198;20.908;2022-09-09T14:01:51;100313.00;;;18.50
45850;BMP180;10739;52.198;20.908;2022-09-09T14:04:19;100307.00;;;18.40
45850;BMP180;10739;52.198;20.908;2022-09-09T14:06:48;100318.00;;;18.20
45850;BMP180;10739;52.198;20.908;2022-09-09T14:09:17;100315.00;;;18.50
45850;BMP180;10739;52.198;20.908;2022-09-09T14:11:45;100322.00;;;18.80
45850;BMP180;10739;52.198;20.908;2022-09-09T14:14:12;100324.00;;;18.30
45850;BMP180;10739;52.198;20.908;2022-09-09T14:16:38;100316.00;;;18.60
45850;BMP180;10739;52.198;20.908;2022-09-09T14:19:04;100314.00;;;18.90
45850;BMP180;10739;52.198;20.908;2022-09-09T14:21:31;100317.00;;;18.70
45850;BMP180;10739;52.198;20.908;2022-09-09T14:23:58;100322.00;;;18.90
45850;BMP180;10739;52.198;20.908;2022-09-09T14:26:25;100330.00;;;18.70
45850;BMP180;10739;52.198;20.908;2022-09-09T14:28:52;100334.00;;;18.50
45850;BMP180;10739;52.198;20.908;2022-09-09T14:31:18;100335.00;;;18.80
45850;BMP180;10739;52.198;20.908;2022-09-09T14:33:45;100332.00;;;18.90
45850;BMP180;10739;52.198;20.908;2022-09-09T14:36:11;100331.00;;;18.80
45850;BMP180;10739;52.198;20.908;2022-09-09T14:38:38;100314.00;;;18.40
45850;BMP180;10739;52.198;20.908;2022-09-09T14:41:14;100323.00;;;18.90
45850;BMP180;10739;52.198;20.908;2022-09-09T14:43:45;100318.00;;;18.90
45850;BMP180;10739;52.198;20.908;2022-09-09T14:46:15;100323.00;;;19.20
45850;BMP180;10739;52.198;20.908;2022-09-09T14:48:42;100331.00;;;19.00
45850;BMP180;10739;52.198;20.908;2022-09-09T14:51:22;100337.00;;;18.50
45850;BMP180;10739;52.198;20.908;2022-09-09T14:53:52;100334.00;;;18.50
45850;BMP180;10739;52.198;20.908;2022-09-09T14:56:22;100336.00;;;18.80
45850;BMP180;10739;52.198;20.908;2022-09-09T14:58:49;100331.00;;;19.00
45850;BMP180;10739;52.198;20.908;2022-09-09T15:01:19;100324.00;;;18.40
45850;BMP180;10739;52.198;20.908;2022-09-09T15:03:56;100332.00;;;18.00
45850;BMP180;10739;52.198;20.908;2022-09-09T15:06:25;100331.00;;;18.20
45850;BMP180;10739;52.198;20.908;2022-09-09T15:08:53;100335.00;;;18.10
45850;BMP180;10739;52.198;20.908;2022-09-09T15:11:20;100315.00;;;18.70
45850;BMP180;10739;52.198;20.908;2022-09-09T15:13:51;100324.00;;;18.80
45850;BMP180;10739;52.198;20.908;2022-09-09T15:16:21;100322.00;;;18.70
45850;BMP180;10739;52.198;20.908;2022-09-09T15:18:54;100314.00;;;18.70
45850;BMP180;10739;52.198;20.908;2022-09-09T15:21:25;100332.00;;;18.60
45850;BMP180;10739;52.198;20.908;2022-09-09T15:23:55;100330.00;;;18.60
45850;BMP180;10739;52.198;20.908;2022-09-09T15:26:24;100324.00;;;18.80
45850;BMP180;10739;52.198;20.908;2022-09-09T15:28:53;100334.00;;;18.80
45850;BMP180;10739;52.198;20.908;2022-09-09T15:31:29;100324.00;;;18.40
45850;BMP180;10739;52.198;20.908;2022-09-09T15:33:59;100335.00;;;18.60
45850;BMP180;10739;52.198;20.908;2022-09-09T15:36:40;100332.00;;;18.60
45850;BMP180;10739;52.198;20.908;2022-09-09T15:39:12;100335.00;;;19.10
45850;BMP180;10739;52.198;20.908;2022-09-09T15:41:39;100335.00;;;18.80
45850;BMP180;10739;52.198;20.908;2022-09-09T15:44:08;100341.00;;;18.70
45850;BMP180;10739;52.198;20.908;2022-09-09T15:46:46;100326.00;;;18.80
45850;BMP180;10739;52.198;20.908;2022-09-09T15:49:20;100331.00;;;19.30
45850;BMP180;10739;52.198;20.908;2022-09-09T15:51:57;100323.00;;;18.80
45850;BMP180;10739;52.198;20.908;2022-09-09T15:54:26;100330.00;;;19.30
45850;BMP180;10739;52.198;20.908;2022-09-09T15:56:55;100336.00;;;19.00
45850;BMP180;10739;52.198;20.908;2022-09-09T15:59:28;100325.00;;;19.10
45850;BMP180;10739;52.198;20.908;2022-09-09T16:01:55;100317.00;;;18.70
45850;BMP180;10739;52.198;20.908;2022-09-09T16:04:23;100333.00;;;18.70
45850;BMP180;10739;52.198;20.908;2022-09-09T16:07:01;100331.00;;;18.80
45850;BMP180;10739;52.198;20.908;2022-09-09T16:09:31;100335.00;;;18.90
45850;BMP180;10739;52.198;20.908;2022-09-09T16:11:59;100326.00;;;19.00
45850;BMP180;10739;52.198;20.908;2022-09-09T16:14:27;100326.00;;;18.90
45850;BMP180;10739;52.198;20.908;2022-09-09T16:16:53;100325.00;;;19.10
45850;BMP180;10739;52.198;20.908;2022-09-09T16:19:20;100325.00;;;18.90
45850;BMP180;10739;52.198;20.908;2022-09-09T16:21:49;100324.00;;;18.80
45850;BMP180;10739;52.198;20.908;2022-09-09T16:24:19;100323.00;;;19.00
45850;BMP180;10739;52.198;20.908;2022-09-09T16:26:51;100323.00;;;18.80